createdAt,value
2023-04-28T00:01:56.701Z,97153.50
2023-04-28T00:04:24.736Z,97145.00
2023-04-28T00:06:52.712Z,97150.84
2023-04-28T00:09:20.314Z,97155.13
2023-04-28T00:11:48.264Z,97158.00
2023-04-28T00:14:16.004Z,97164.59
2023-04-28T00:16:44.033Z,97169.00
2023-04-28T00:19:11.617Z,97164.38
2023-04-28T00:21:39.339Z,97157.00
2023-04-28T00:24:07.384Z,97162.13
2023-04-28T00:26:34.867Z,97155.19
2023-04-28T00:29:02.452Z,97164.59
2023-04-28T00:31:30.298Z,97169.34
2023-04-28T00:33:57.875Z,97164.97
2023-04-28T00:36:25.810Z,97171.13
2023-04-28T00:38:54.688Z,97163.03
2023-04-28T00:41:22.067Z,97168.75
2023-04-28T00:43:50.760Z,97158.28
2023-04-28T00:46:22.854Z,97177.53
2023-04-28T00:48:50.903Z,97180.38
2023-04-28T00:51:18.516Z,97181.56
2023-04-28T00:53:46.384Z,97180.38
2023-04-28T00:56:14.362Z,97179.25
2023-04-28T00:58:42.947Z,97187.75
2023-04-28T01:01:11.273Z,97178.81
2023-04-28T01:03:41.182Z,97190.81
2023-04-28T01:06:11.104Z,97191.22
2023-04-28T01:08:43.521Z,97196.28
2023-04-28T01:11:16.613Z,97189.28
2023-04-28T01:14:07.171Z,97196.19
2023-04-28T01:16:39.060Z,97209.75
2023-04-28T01:19:08.709Z,97207.34
2023-04-28T01:21:39.720Z,97204.31
2023-04-28T01:24:29.800Z,97204.22
2023-04-28T01:27:01.342Z,97208.47
2023-04-28T01:29:29.011Z,97213.19
2023-04-28T01:31:56.577Z,97220.00
2023-04-28T01:34:24.150Z,97215.16
2023-04-28T01:36:51.589Z,97218.94
2023-04-28T01:39:19.486Z,97223.84
2023-04-28T01:41:47.057Z,97224.84
2023-04-28T01:44:14.888Z,97230.56
2023-04-28T01:46:42.772Z,97234.31
2023-04-28T01:49:10.335Z,97233.84
2023-04-28T01:51:37.778Z,97232.22
2023-04-28T01:54:05.892Z,97239.50
2023-04-28T01:56:33.334Z,97243.34
2023-04-28T01:59:01.642Z,97254.53
2023-04-28T02:01:29.491Z,97239.75
2023-04-28T02:03:57.413Z,97254.00
2023-04-28T02:06:25.201Z,97260.81
2023-04-28T02:08:52.669Z,97256.81
2023-04-28T02:11:20.438Z,97253.59
2023-04-28T02:13:49.335Z,97261.28
2023-04-28T02:16:36.767Z,97255.72
2023-04-28T02:19:05.173Z,97265.72
2023-04-28T02:21:33.183Z,97271.13
2023-04-28T02:24:00.640Z,97279.56
2023-04-28T02:26:28.142Z,97281.34
2023-04-28T02:28:55.628Z,97282.00
2023-04-28T02:31:23.628Z,97285.44
2023-04-28T02:33:54.764Z,97292.78
2023-04-28T02:36:22.199Z,97297.41
2023-04-28T02:38:49.694Z,97299.34
2023-04-28T02:41:17.158Z,97304.72
2023-04-28T02:43:44.693Z,97310.88
2023-04-28T02:46:12.411Z,97313.94
2023-04-28T02:48:41.092Z,97312.31
2023-04-28T02:51:08.758Z,97315.47
2023-04-28T02:53:36.346Z,97324.13
2023-04-28T02:56:04.957Z,97322.94
2023-04-28T02:58:33.700Z,97323.69
2023-04-28T03:01:01.898Z,97328.72
2023-04-28T03:03:29.546Z,97337.78
2023-04-28T03:05:57.324Z,97332.31
2023-04-28T03:08:25.057Z,97338.53
2023-04-28T03:10:54.260Z,97346.41
2023-04-28T03:13:21.846Z,97346.75
2023-04-28T03:15:52.781Z,97344.38
2023-04-28T03:18:20.235Z,97341.63
2023-04-28T03:20:47.831Z,97349.72
2023-04-28T03:23:15.295Z,97354.00
2023-04-28T03:25:42.814Z,97354.38
2023-04-28T03:28:11.109Z,97351.28
2023-04-28T03:30:38.629Z,97362.91
2023-04-28T03:33:06.103Z,97365.97
2023-04-28T03:35:33.987Z,97369.47
2023-04-28T03:38:01.523Z,97345.22
2023-04-28T03:40:29.130Z,97377.06
2023-04-28T03:43:11.646Z,97378.63
2023-04-28T03:45:47.789Z,97386.06
2023-04-28T03:48:15.524Z,97382.97
2023-04-28T03:50:43.887Z,97389.19
2023-04-28T03:53:11.975Z,97403.97
2023-04-28T03:55:39.401Z,97392.28
2023-04-28T03:58:06.870Z,97392.59
2023-04-28T04:00:35.261Z,97403.56
2023-04-28T04:03:02.833Z,97402.47
2023-04-28T04:05:30.736Z,97407.50
2023-04-28T04:07:58.406Z,97401.50
2023-04-28T04:10:25.898Z,97405.78
2023-04-28T04:12:53.904Z,97413.47
2023-04-28T04:15:21.466Z,97416.66
2023-04-28T04:17:49.516Z,97415.44
2023-04-28T04:20:17.078Z,97418.16
2023-04-28T04:22:46.264Z,97423.97
2023-04-28T04:25:14.585Z,97424.41
2023-04-28T04:27:47.863Z,97430.13
2023-04-28T04:30:15.806Z,97431.00
2023-04-28T04:32:43.608Z,97442.69
2023-04-28T04:35:11.389Z,97442.38
2023-04-28T04:37:39.069Z,97448.19
2023-04-28T04:40:08.002Z,97456.44
2023-04-28T04:42:41.920Z,97456.31
2023-04-28T04:45:14.005Z,97466.19
2023-04-28T04:47:42.884Z,97465.09
2023-04-28T04:50:12.205Z,97473.06
2023-04-28T04:52:40.263Z,97463.47
2023-04-28T04:55:08.284Z,97484.72
2023-04-28T04:57:35.860Z,97480.75
2023-04-28T05:00:09.180Z,97488.09
2023-04-28T05:02:37.766Z,97488.94
2023-04-28T05:05:20.469Z,97497.50
2023-04-28T05:08:02.719Z,97492.69
2023-04-28T05:10:30.220Z,97507.53
2023-04-28T05:12:57.705Z,97519.66
2023-04-28T05:15:25.286Z,97509.56
2023-04-28T05:18:16.259Z,97536.63
2023-04-28T05:20:44.032Z,97529.41
2023-04-28T05:23:18.316Z,97548.38
2023-04-28T05:25:45.916Z,97541.25
2023-04-28T05:28:13.866Z,97540.94
2023-04-28T05:30:45.171Z,97563.47
2023-04-28T05:33:14.409Z,97572.53
2023-04-28T05:35:43.119Z,97579.28
2023-04-28T05:38:10.844Z,97572.03
2023-04-28T05:40:38.793Z,97589.47
2023-04-28T05:43:06.256Z,97599.47
2023-04-28T05:45:33.801Z,97601.44
2023-04-28T05:48:02.147Z,97611.56
2023-04-28T05:50:29.846Z,97612.22
2023-04-28T05:52:57.628Z,97605.13
2023-04-28T05:55:25.569Z,97616.88
2023-04-28T05:57:54.759Z,97625.03
2023-04-28T06:00:22.844Z,97612.00
2023-04-28T06:02:54.389Z,97625.94
2023-04-28T06:05:23.807Z,97633.66
2023-04-28T06:07:55.140Z,97622.94
2023-04-28T06:10:23.908Z,97631.41
2023-04-28T06:12:51.584Z,97639.47
2023-04-28T06:15:18.995Z,97641.03
2023-04-28T06:17:47.050Z,97635.31
2023-04-28T06:20:16.886Z,97644.69
2023-04-28T06:22:44.908Z,97651.53
2023-04-28T06:25:12.856Z,97659.38
2023-04-28T06:27:47.746Z,97664.78
2023-04-28T06:30:20.527Z,97674.78
2023-04-28T06:32:48.198Z,97674.38
2023-04-28T06:35:17.181Z,97687.47
2023-04-28T06:37:44.716Z,97691.06
2023-04-28T06:40:12.398Z,97690.28
2023-04-28T06:42:44.039Z,97700.06
2023-04-28T06:45:16.999Z,97694.78
2023-04-28T06:47:45.051Z,97705.25
2023-04-28T06:50:13.056Z,97692.66
2023-04-28T06:52:40.886Z,97712.03
2023-04-28T06:55:11.972Z,97713.13
2023-04-28T06:57:39.467Z,97703.84
2023-04-28T07:00:08.486Z,97706.25
2023-04-28T07:02:37.165Z,97712.91
2023-04-28T07:05:05.371Z,97715.91
2023-04-28T07:07:33.174Z,97722.97
2023-04-28T07:10:01.342Z,97714.78
2023-04-28T07:12:30.799Z,97717.94
2023-04-28T07:14:58.258Z,97722.97
2023-04-28T07:17:25.863Z,97728.44
2023-04-28T07:19:53.371Z,97733.91
2023-04-28T07:22:20.892Z,97728.56
2023-04-28T07:24:48.391Z,97734.84
2023-04-28T07:27:15.872Z,97740.69
2023-04-28T07:29:43.420Z,97735.66
2023-04-28T07:32:11.217Z,97738.78
2023-04-28T07:34:38.833Z,97740.69
2023-04-28T07:37:07.295Z,97736.03
2023-04-28T07:39:35.401Z,97745.00
2023-04-28T07:42:03.786Z,97748.94
2023-04-28T07:44:32.728Z,97754.75
2023-04-28T07:47:01.419Z,97759.03
2023-04-28T07:49:29.885Z,97757.53
2023-04-28T07:51:57.602Z,97757.19
2023-04-28T07:54:26.450Z,97754.78
2023-04-28T07:56:54.054Z,97752.81
2023-04-28T07:59:21.491Z,97766.41
2023-04-28T08:01:48.968Z,97757.94
2023-04-28T08:04:16.704Z,97753.63
2023-04-28T08:06:44.529Z,97764.09
2023-04-28T08:09:12.176Z,97765.34
2023-04-28T08:11:39.597Z,97757.56
2023-04-28T08:14:07.230Z,97768.44
2023-04-28T08:16:38.585Z,97772.72
2023-04-28T08:19:06.193Z,97761.03
2023-04-28T08:21:34.726Z,97777.47
2023-04-28T08:24:02.171Z,97776.66
2023-04-28T08:26:29.742Z,97785.25
2023-04-28T08:28:57.484Z,97783.69
2023-04-28T08:31:25.171Z,97783.28
2023-04-28T08:33:53.522Z,97784.00
2023-04-28T08:36:22.096Z,97792.13
2023-04-28T08:38:49.626Z,97790.56
2023-04-28T08:41:17.452Z,97809.19
2023-04-28T08:43:45.988Z,97792.06
2023-04-28T08:46:15.339Z,97801.78
2023-04-28T08:48:47.939Z,97804.91
2023-04-28T08:51:23.634Z,97801.38
2023-04-28T08:56:25.393Z,97811.63
2023-04-28T08:58:54.219Z,97810.25
2023-04-28T09:01:21.702Z,97822.75
2023-04-28T09:03:49.718Z,97818.47
2023-04-28T09:06:17.625Z,97810.38
2023-04-28T09:08:45.082Z,97811.56
2023-04-28T09:11:13.894Z,97808.06
2023-04-28T09:13:42.072Z,97820.09
2023-04-28T09:16:09.917Z,97813.47
2023-04-28T09:18:37.398Z,97822.78
2023-04-28T09:21:09.675Z,97828.59
2023-04-28T09:23:49.425Z,97828.56
2023-04-28T09:26:17.046Z,97826.31
2023-04-28T09:28:44.652Z,97835.63
2023-04-28T09:31:28.287Z,97835.56
2023-04-28T09:33:59.963Z,97841.88
2023-04-28T09:36:31.238Z,97834.50
2023-04-28T09:39:00.346Z,97833.34
2023-04-28T09:41:41.802Z,97835.59
2023-04-28T09:44:17.419Z,97840.25
2023-04-28T09:46:46.543Z,97827.78
2023-04-28T09:49:14.731Z,97840.97
2023-04-28T09:51:42.405Z,97835.97
2023-04-28T09:54:10.235Z,97821.66
2023-04-28T09:56:40.376Z,97832.03
2023-04-28T09:59:08.391Z,97836.66
2023-04-28T10:01:41.567Z,97834.19
2023-04-28T10:04:12.198Z,97832.97
2023-04-28T10:06:40.396Z,97835.63
2023-04-28T10:09:08.764Z,97839.84
2023-04-28T10:11:37.586Z,97844.78
2023-04-28T10:14:05.060Z,97837.75
2023-04-28T10:16:33.441Z,97855.66
2023-04-28T10:19:03.598Z,97854.78
2023-04-28T10:21:34.911Z,97868.78
2023-04-28T10:24:15.594Z,97861.28
2023-04-28T10:27:05.974Z,97863.91
2023-04-28T10:29:34.606Z,97848.81
2023-04-28T10:32:28.938Z,97858.03
2023-04-28T10:35:22.046Z,97858.41
2023-04-28T10:38:06.086Z,97849.78
2023-04-28T10:40:41.566Z,97846.72
2023-04-28T10:43:10.874Z,97849.81
2023-04-28T10:45:56.029Z,97842.22
2023-04-28T10:48:44.903Z,97833.34
2023-04-28T10:51:15.463Z,97829.63
2023-04-28T10:53:46.835Z,97845.88
2023-04-28T10:56:23.820Z,97828.78
2023-04-28T10:58:55.020Z,97830.78
2023-04-28T11:01:22.892Z,97828.00
2023-04-28T11:03:50.622Z,97828.31
2023-04-28T11:06:34.644Z,97827.34
2023-04-28T11:09:15.623Z,97819.97
2023-04-28T11:12:07.183Z,97827.22
2023-04-28T11:14:36.737Z,97832.34
2023-04-28T11:17:07.291Z,97807.88
2023-04-28T11:19:36.859Z,97820.63
2023-04-28T11:22:11.939Z,97814.94
2023-04-28T11:24:39.814Z,97826.72
2023-04-28T11:27:07.354Z,97825.94
2023-04-28T11:29:40.026Z,97835.19
2023-04-28T11:32:09.887Z,97832.50
2023-04-28T11:34:38.423Z,97833.63
2023-04-28T11:37:09.554Z,97831.22
2023-04-28T11:39:37.614Z,97831.84
2023-04-28T11:42:14.314Z,97827.41
2023-04-28T11:44:41.965Z,97815.16
2023-04-28T11:47:09.674Z,97825.94
2023-04-28T11:49:47.213Z,97832.03
2023-04-28T11:52:14.826Z,97822.03
2023-04-28T11:54:43.961Z,97819.72
2023-04-28T11:57:21.865Z,97825.84
2023-04-28T11:59:50.659Z,97824.78
2023-04-28T12:02:29.882Z,97823.88
2023-04-28T12:05:05.792Z,97818.59
2023-04-28T12:07:44.585Z,97824.66
2023-04-28T12:10:17.427Z,97820.44
2023-04-28T12:15:20.774Z,97815.78
2023-04-28T12:17:49.474Z,97806.09
2023-04-28T12:20:37.368Z,97812.81
2023-04-28T12:23:05.900Z,97814.66
2023-04-28T12:25:35.379Z,97810.81
2023-04-28T12:28:08.606Z,97804.16
2023-04-28T12:30:44.223Z,97794.44
2023-04-28T12:33:25.909Z,97803.31
2023-04-28T12:35:57.406Z,97795.94
2023-04-28T12:38:25.582Z,97795.59
2023-04-28T12:40:53.740Z,97795.59
2023-04-28T12:43:23.609Z,97784.31
2023-04-28T12:45:53.904Z,97794.94
2023-04-28T12:48:22.649Z,97792.66
2023-04-28T12:50:50.426Z,97795.38
2023-04-28T12:53:17.878Z,97795.03
2023-04-28T12:55:45.408Z,97789.28
2023-04-28T12:58:13.067Z,97788.59
2023-04-28T13:00:42.108Z,97790.66
2023-04-28T13:03:09.890Z,97790.59
2023-04-28T13:05:37.525Z,97784.75
2023-04-28T13:08:05.419Z,97790.56
2023-04-28T13:10:32.892Z,97776.97
2023-04-28T13:13:00.463Z,97784.75
2023-04-28T13:15:27.927Z,97778.53
2023-04-28T13:17:55.500Z,97779.66
2023-04-28T13:20:23.293Z,97775.38
2023-04-28T13:22:51.105Z,97778.97
2023-04-28T13:25:18.600Z,97777.03
2023-04-28T13:27:48.021Z,97786.75
2023-04-28T13:30:15.592Z,97781.72
2023-04-28T13:32:43.194Z,97779.31
2023-04-28T13:35:10.678Z,97773.06
2023-04-28T13:37:42.812Z,97778.09
2023-04-28T13:40:12.513Z,97781.16
2023-04-28T13:42:40.039Z,97776.84
2023-04-28T13:45:07.792Z,97778.75
2023-04-28T13:47:35.389Z,97768.19
2023-04-28T13:50:03.774Z,97781.03
2023-04-28T13:52:31.456Z,97776.75
2023-04-28T13:54:59.029Z,97784.94
2023-04-28T13:57:26.998Z,97784.97
2023-04-28T13:59:54.532Z,97780.31
2023-04-28T14:02:22.231Z,97781.09
2023-04-28T14:04:51.378Z,97773.72
2023-04-28T14:07:19.220Z,97775.72
2023-04-28T14:09:47.158Z,97781.97
2023-04-28T14:12:15.697Z,97786.63
2023-04-28T14:14:43.806Z,97792.88
2023-04-28T14:17:11.590Z,97786.28
2023-04-28T14:19:39.130Z,97785.09
2023-04-28T14:22:12.584Z,97793.59
2023-04-28T14:24:40.164Z,97798.66
2023-04-28T14:27:07.979Z,97779.56
2023-04-28T14:29:35.538Z,97791.28
2023-04-28T14:32:03.091Z,97781.56
2023-04-28T14:34:30.532Z,97780.41
2023-04-28T14:36:58.059Z,97783.50
2023-04-28T14:39:25.865Z,97783.22
2023-04-28T14:41:53.360Z,97792.16
2023-04-28T14:44:20.987Z,97789.50
2023-04-28T14:46:49.127Z,97784.84
2023-04-28T14:49:16.793Z,97801.94
2023-04-28T14:51:44.190Z,97794.19
2023-04-28T14:54:11.715Z,97805.19
2023-04-28T14:56:39.332Z,97818.06
2023-04-28T14:59:07.083Z,97811.09
2023-04-28T15:01:34.580Z,97806.94
2023-04-28T15:04:02.198Z,97820.44
2023-04-28T15:06:30.161Z,97815.47
2023-04-28T15:08:57.575Z,97824.91
2023-04-28T15:11:25.059Z,97813.31
2023-04-28T15:13:52.529Z,97824.63
2023-04-28T15:16:20.437Z,97827.00
2023-04-28T15:18:48.722Z,97825.13
2023-04-28T15:21:16.246Z,97825.53
2023-04-28T15:23:43.720Z,97830.22
2023-04-28T15:26:11.341Z,97833.34
2023-04-28T15:28:39.674Z,97827.53
2023-04-28T15:31:07.521Z,97836.84
2023-04-28T15:33:35.117Z,97839.59
2023-04-28T15:36:02.767Z,97845.03
2023-04-28T15:38:32.004Z,97856.38
2023-04-28T15:40:59.664Z,97850.19
2023-04-28T15:43:27.187Z,97834.28
2023-04-28T15:45:54.807Z,97844.38
2023-04-28T15:48:23.499Z,97851.75
2023-04-28T15:50:51.176Z,97857.59
2023-04-28T15:53:18.891Z,97851.03
2023-04-28T15:55:46.457Z,97857.66
2023-04-28T15:58:14.033Z,97854.97
2023-04-28T16:00:42.517Z,97868.91
2023-04-28T16:03:10.136Z,97872.78
2023-04-28T16:05:38.895Z,97883.25
2023-04-28T16:08:06.692Z,97878.63
2023-04-28T16:10:34.833Z,97873.53
2023-04-28T16:13:02.405Z,97871.63
2023-04-28T16:15:29.914Z,97875.50
2023-04-28T16:17:57.953Z,97871.25
2023-04-28T16:20:25.426Z,97885.22
2023-04-28T16:22:53.637Z,97896.44
2023-04-28T16:25:21.407Z,97891.44
2023-04-28T16:27:48.844Z,97891.81
2023-04-28T16:30:16.405Z,97895.28
2023-04-28T16:32:44.016Z,97911.94
2023-04-28T16:35:15.266Z,97909.63
2023-04-28T16:37:43.841Z,97910.78
2023-04-28T16:40:12.722Z,97911.16
2023-04-28T16:42:40.279Z,97921.63
2023-04-28T16:45:08.591Z,97920.44
2023-04-28T16:47:36.365Z,97922.38
2023-04-28T16:50:04.171Z,97922.44
2023-04-28T16:52:33.172Z,97921.25
2023-04-28T16:55:00.794Z,97932.88
2023-04-28T16:57:28.225Z,97929.34
2023-04-28T16:59:56.039Z,97929.34
2023-04-28T17:02:24.508Z,97932.81
2023-04-28T17:04:52.399Z,97933.97
2023-04-28T17:07:20.126Z,97939.38
2023-04-28T17:09:47.767Z,97930.50
2023-04-28T17:12:17.069Z,97931.66
2023-04-28T17:14:44.570Z,97935.16
2023-04-28T17:17:12.197Z,97930.50
2023-04-28T17:19:47.240Z,97947.94
2023-04-28T17:22:14.793Z,97948.72
2023-04-28T17:24:42.379Z,97944.84
2023-04-28T17:27:10.225Z,97959.56
2023-04-28T17:29:37.813Z,97959.53
2023-04-28T17:32:06.504Z,97950.25
2023-04-28T17:34:34.294Z,97943.66
2023-04-28T17:37:01.740Z,97949.06
2023-04-28T17:39:29.310Z,97961.81
2023-04-28T17:41:58.371Z,97966.06
2023-04-28T17:44:26.210Z,97959.81
2023-04-28T17:46:56.584Z,97960.66
2023-04-28T17:49:24.732Z,97978.50
2023-04-28T17:51:52.215Z,97967.59
2023-04-28T17:54:19.920Z,97968.00
2023-04-28T17:56:47.295Z,97959.09
2023-04-28T17:59:16.332Z,97969.91
2023-04-28T18:01:43.884Z,97963.25
2023-04-28T18:04:11.521Z,97965.16
2023-04-28T18:06:38.999Z,97956.25
2023-04-28T18:09:06.549Z,97968.94
2023-04-28T18:11:34.985Z,97967.31
2023-04-28T18:14:02.480Z,97956.13
2023-04-28T18:16:30.041Z,97960.28
2023-04-28T18:18:57.612Z,97960.66
2023-04-28T18:21:25.028Z,97953.16
2023-04-28T18:23:52.422Z,97955.84
2023-04-28T18:26:21.231Z,97958.88
2023-04-28T18:28:48.770Z,97940.34
2023-04-28T18:31:17.244Z,97951.94
2023-04-28T18:33:45.330Z,97958.16
2023-04-28T18:36:15.688Z,97956.22
2023-04-28T18:38:45.750Z,97955.06
2023-04-28T18:41:18.152Z,97961.69
2023-04-28T18:43:45.888Z,97959.31
2023-04-28T18:46:13.889Z,97982.56
2023-04-28T18:48:41.523Z,97970.94
2023-04-28T18:51:12.061Z,97975.94
2023-04-28T18:53:39.525Z,97967.84
2023-04-28T18:56:12.816Z,97965.88
2023-04-28T18:58:43.297Z,97970.25
2023-04-28T19:01:15.470Z,97964.47
2023-04-28T19:03:44.039Z,97961.56
2023-04-28T19:06:12.342Z,97965.75
2023-04-28T19:08:39.874Z,97963.69
2023-04-28T19:11:09.657Z,97963.38
2023-04-28T19:13:38.211Z,97971.88
2023-04-28T19:16:05.958Z,97981.19
2023-04-28T19:18:33.637Z,97969.56
2023-04-28T19:21:05.405Z,97980.13
2023-04-28T19:23:33.006Z,97980.44
2023-04-28T19:26:03.509Z,97980.00
2023-04-28T19:28:31.307Z,97975.97
2023-04-28T19:30:59.345Z,97989.19
2023-04-28T19:33:28.384Z,97986.06
2023-04-28T19:35:56.155Z,97993.69
2023-04-28T19:38:24.114Z,97987.88
2023-04-28T19:40:59.158Z,97988.81
2023-04-28T19:43:26.825Z,97992.53
2023-04-28T19:45:54.382Z,98002.66
2023-04-28T19:48:22.293Z,97998.34
2023-04-28T19:50:49.755Z,98002.22
2023-04-28T19:53:17.191Z,98005.94
2023-04-28T19:55:44.643Z,97994.31
2023-04-28T19:58:12.440Z,98013.38
2023-04-28T20:00:39.969Z,98010.66
2023-04-28T20:03:08.635Z,98012.56
2023-04-28T20:05:39.336Z,98020.31
2023-04-28T20:08:13.121Z,98018.72
2023-04-28T20:10:40.889Z,98018.28
2023-04-28T20:13:08.768Z,98028.78
2023-04-28T20:15:36.495Z,98013.69
2023-04-28T20:18:04.660Z,98020.97
2023-04-28T20:20:32.105Z,98026.34
2023-04-28T20:22:59.516Z,98018.09
2023-04-28T20:25:28.093Z,98016.53
2023-04-28T20:27:55.601Z,98016.09
2023-04-28T20:30:23.247Z,98019.16
2023-04-28T20:32:50.718Z,98020.69
2023-04-28T20:35:18.434Z,98013.25
2023-04-28T20:37:45.801Z,98015.63
2023-04-28T20:40:13.535Z,98019.19
2023-04-28T20:42:41.087Z,98026.25
2023-04-28T20:45:08.835Z,98023.88
2023-04-28T20:47:36.882Z,98019.28
2023-04-28T20:50:05.199Z,98031.66
2023-04-28T20:52:32.747Z,98024.75
2023-04-28T20:55:00.650Z,98026.31
2023-04-28T20:57:28.197Z,98034.44
2023-04-28T20:59:55.726Z,98029.00
2023-04-28T21:02:23.516Z,98032.50
2023-04-28T21:04:51.130Z,98037.50
2023-04-28T21:07:18.999Z,98029.75
2023-04-28T21:09:46.484Z,98039.84
2023-04-28T21:12:13.878Z,98045.66
2023-04-28T21:14:41.440Z,98037.75
2023-04-28T21:17:09.301Z,98032.09
2023-04-28T21:19:37.288Z,98045.25
2023-04-28T21:22:04.803Z,98046.75
2023-04-28T21:24:32.292Z,98039.41
2023-04-28T21:27:03.218Z,98032.84
2023-04-28T21:29:32.201Z,98047.22
2023-04-28T21:31:59.661Z,98039.47
2023-04-28T21:34:27.970Z,98039.19
2023-04-28T21:36:55.518Z,98040.78
2023-04-28T21:39:23.039Z,98041.13
2023-04-28T21:41:50.695Z,98014.31
2023-04-28T21:44:18.502Z,98034.91
2023-04-28T21:46:46.115Z,98045.34
2023-04-28T21:49:14.173Z,98046.63
2023-04-28T21:51:46.177Z,98042.53
2023-04-28T21:54:14.669Z,98029.66
2023-04-28T21:56:42.267Z,98036.16
2023-04-28T21:59:09.721Z,98040.91
2023-04-28T22:01:37.225Z,98041.19
2023-04-28T22:04:08.932Z,98051.25
2023-04-28T22:06:36.627Z,98050.44
2023-04-28T22:09:05.340Z,98053.50
2023-04-28T22:11:32.878Z,98056.22
2023-04-28T22:14:00.453Z,98058.09
2023-04-28T22:16:28.392Z,98061.09
2023-04-28T22:18:55.883Z,98063.41
2023-04-28T22:21:23.520Z,98073.88
2023-04-28T22:23:51.013Z,98067.25
2023-04-28T22:26:28.742Z,98078.06
2023-04-28T22:28:56.433Z,98072.59
2023-04-28T22:31:23.949Z,98085.00
2023-04-28T22:33:51.556Z,98079.31
2023-04-28T22:36:18.936Z,98083.88
2023-04-28T22:38:46.518Z,98092.13
2023-04-28T22:41:14.005Z,98092.44
2023-04-28T22:43:41.619Z,98086.66
2023-04-28T22:46:09.164Z,98088.59
2023-04-28T22:48:36.664Z,98077.41
2023-04-28T22:51:04.192Z,98085.91
2023-04-28T22:53:31.675Z,98082.81
2023-04-28T22:56:03.166Z,98081.66
2023-04-28T22:58:30.693Z,98085.56
2023-04-28T23:01:02.036Z,98089.88
2023-04-28T23:03:29.535Z,98085.81
2023-04-28T23:05:57.218Z,98091.28
2023-04-28T23:08:24.760Z,98095.88
2023-04-28T23:10:52.200Z,98095.81
2023-04-28T23:13:19.729Z,98094.31
2023-04-28T23:15:47.377Z,98099.78
2023-04-28T23:18:14.900Z,98097.84
2023-04-28T23:20:42.462Z,98095.50
2023-04-28T23:23:09.965Z,98100.19
2023-04-28T23:25:40.774Z,98091.22
2023-04-28T23:28:09.137Z,98099.31
2023-04-28T23:30:36.786Z,98110.13
2023-04-28T23:33:04.539Z,98110.47
2023-04-28T23:35:33.477Z,98122.88
2023-04-28T23:38:00.889Z,98111.94
2023-04-28T23:40:28.327Z,98121.72
2023-04-28T23:42:55.849Z,98116.72
2023-04-28T23:45:23.560Z,98121.28
2023-04-28T23:47:51.174Z,98111.28
2023-04-28T23:50:18.731Z,98115.13
2023-04-28T23:52:46.409Z,98104.22
2023-04-28T23:55:14.086Z,98104.72
2023-04-28T23:57:42.202Z,98112.00
